Aviation Digital Data Service (ADDS)

Output produced by METARs form (2111 UTC 16 February 2019)
found at http://www.aviationweather.gov/metar/data/
 
METAR text: ETND 151020Z 14003KT 9999 FEW270 08/01 Q1033 BLU+
Conditions at: ETND (DIEPHOLZ (GER-AF, DE) observed 1020 UTC 15 February 2019
Temperature: 8.0°C (46°F)
Dewpoint: 1.0°C (34°F) [RH = 61%]
Pressure (altimeter): 30.50 inches Hg (1033.0 mb)
Winds: from the SE (140 degrees) at 3 MPH (3 knots; 1.5 m/s)
Visibility: 6 or more miles (10+ km)
Ceiling: at least 12,000 feet AGL
Clouds: few clouds at 27000 feet AGL
Weather: no significant weather observed at this time

METAR text: ETND 150920Z 18002KT 9999 FEW270 06/01 Q1033 BLU+
Conditions at: ETND (DIEPHOLZ (GER-AF, DE) observed 0920 UTC 15 February 2019
Temperature: 6.0°C (43°F)
Dewpoint: 1.0°C (34°F) [RH = 70%]
Pressure (altimeter): 30.50 inches Hg (1033.0 mb)
Winds: from the S (180 degrees) at 2 MPH (2 knots; 1.0 m/s)
Visibility: 6 or more miles (10+ km)
Ceiling: at least 12,000 feet AGL
Clouds: few clouds at 27000 feet AGL
Weather: no significant weather observed at this time